createdAt,value
2019-05-05T00:01:17.377Z,4.33
2019-05-05T00:04:04.492Z,5.15
2019-05-05T00:06:34.238Z,2.30
2019-05-05T00:09:05.264Z,3.77
2019-05-05T00:11:37.814Z,2.90
2019-05-05T00:14:24.838Z,2.95
2019-05-05T00:17:00.944Z,8.48
2019-05-05T00:19:33.054Z,5.53
2019-05-05T00:21:59.814Z,4.58
2019-05-05T00:24:28.670Z,3.95
2019-05-05T00:26:57.577Z,5.12
2019-05-05T00:29:26.464Z,5.83
2019-05-05T00:32:04.808Z,11.15
2019-05-05T00:34:34.823Z,5.25
2019-05-05T00:37:04.690Z,3.92
2019-05-05T00:39:34.481Z,7.65
2019-05-05T00:42:04.806Z,6.45
2019-05-05T00:44:40.405Z,7.75
2019-05-05T00:47:26.800Z,4.75
2019-05-05T00:49:56.263Z,6.78
2019-05-05T00:52:26.834Z,7.95
2019-05-05T00:54:55.764Z,7.10
2019-05-05T00:57:24.348Z,5.42
2019-05-05T00:59:54.359Z,6.50
2019-05-05T01:02:27.259Z,6.15
2019-05-05T01:05:00.052Z,10.63
2019-05-05T01:07:28.526Z,7.58
2019-05-05T01:09:57.707Z,6.85
2019-05-05T01:12:26.506Z,9.25
2019-05-05T01:14:55.349Z,9.20
2019-05-05T01:17:25.304Z,5.03
2019-05-05T01:20:01.294Z,2.87
2019-05-05T01:22:25.000Z,8.03
2019-05-05T01:24:55.378Z,5.85
2019-05-05T01:27:25.356Z,6.37
2019-05-05T01:29:54.609Z,4.22
2019-05-05T01:32:30.864Z,6.45
2019-05-05T01:34:59.903Z,2.90
2019-05-05T01:37:30.031Z,3.25
2019-05-05T01:40:04.954Z,3.62
2019-05-05T01:42:35.184Z,6.67
2019-05-05T01:45:05.526Z,8.10
2019-05-05T01:47:34.695Z,8.53
2019-05-05T01:50:17.720Z,3.77
2019-05-05T01:52:34.518Z,6.30
2019-05-05T01:55:05.236Z,7.70
2019-05-05T01:57:34.469Z,5.10
2019-05-05T02:00:04.351Z,2.87
2019-05-05T02:02:34.275Z,7.78
2019-05-05T02:05:04.747Z,4.95
2019-05-05T02:07:34.268Z,5.92
2019-05-05T02:10:05.822Z,9.08
2019-05-05T02:12:35.163Z,5.50
2019-05-05T02:15:04.960Z,4.65
2019-05-05T02:17:35.157Z,7.53
2019-05-05T02:20:05.260Z,6.47
2019-05-05T02:22:35.629Z,9.60
2019-05-05T02:25:06.408Z,9.10
2019-05-05T02:27:41.194Z,5.22
2019-05-05T02:30:17.565Z,12.95
2019-05-05T02:32:47.653Z,8.23
2019-05-05T02:35:16.835Z,8.88
2019-05-05T02:37:45.995Z,9.23
2019-05-05T02:40:16.022Z,10.20
2019-05-05T02:42:45.747Z,11.45
2019-05-05T02:45:25.142Z,8.13
2019-05-05T02:48:05.953Z,8.50
2019-05-05T02:50:51.218Z,7.35
2019-05-05T02:53:08.260Z,13.10
2019-05-05T02:55:36.971Z,9.80
2019-05-05T02:58:05.450Z,12.28
2019-05-05T03:00:35.558Z,16.25
2019-05-05T03:03:05.751Z,9.48
2019-05-05T03:05:35.189Z,10.15
2019-05-05T03:08:04.832Z,9.65
2019-05-05T03:10:33.973Z,13.18
2019-05-05T03:13:04.776Z,10.70
2019-05-05T03:15:52.295Z,16.75
2019-05-05T03:18:21.362Z,18.30
2019-05-05T03:21:01.545Z,14.25
2019-05-05T03:23:20.063Z,11.15
2019-05-05T03:25:54.685Z,10.60
2019-05-05T03:28:25.641Z,11.20
2019-05-05T03:30:55.838Z,9.60
2019-05-05T03:33:25.059Z,12.65
2019-05-05T03:35:54.142Z,11.38
2019-05-05T03:38:24.815Z,9.35
2019-05-05T03:40:54.748Z,16.00
2019-05-05T03:43:25.159Z,11.78
2019-05-05T03:45:55.582Z,9.73
2019-05-05T03:48:24.219Z,10.15
2019-05-05T03:50:54.022Z,11.95
2019-05-05T03:53:24.633Z,11.63
2019-05-05T03:55:55.055Z,8.78
2019-05-05T03:58:24.070Z,10.45
2019-05-05T04:00:55.862Z,9.70
2019-05-05T04:03:24.294Z,12.47
2019-05-05T04:05:56.894Z,10.35
2019-05-05T04:08:25.325Z,12.63
2019-05-05T04:10:54.695Z,14.05
2019-05-05T04:13:24.280Z,11.28
2019-05-05T04:16:13.389Z,7.40
2019-05-05T04:18:49.487Z,13.10
2019-05-05T04:21:30.393Z,9.93
2019-05-05T04:23:48.050Z,12.70
2019-05-05T04:26:16.523Z,12.45
2019-05-05T04:28:45.315Z,14.70
2019-05-05T04:31:13.795Z,10.55
2019-05-05T04:33:44.342Z,11.35
2019-05-05T04:36:14.300Z,11.90
2019-05-05T04:38:49.774Z,12.73
2019-05-05T04:41:19.207Z,9.00
2019-05-05T04:43:47.639Z,18.20
2019-05-05T04:46:16.162Z,14.53
2019-05-05T04:48:48.734Z,16.02
2019-05-05T04:51:18.889Z,12.00
2019-05-05T04:54:05.163Z,12.50
2019-05-05T04:56:34.444Z,17.98
2019-05-05T04:59:04.020Z,20.20
2019-05-05T05:01:34.531Z,13.95
2019-05-05T05:04:08.860Z,14.10
2019-05-05T05:06:43.514Z,15.70
2019-05-05T05:09:11.790Z,20.12
2019-05-05T05:11:40.206Z,21.50
2019-05-05T05:14:08.670Z,21.27
2019-05-05T05:16:37.168Z,23.22
2019-05-05T05:19:05.643Z,15.88
2019-05-05T05:21:34.437Z,17.57
2019-05-05T05:24:04.916Z,15.08
2019-05-05T05:26:33.765Z,18.67
2019-05-05T05:29:04.371Z,19.95
2019-05-05T05:31:33.733Z,14.07
2019-05-05T05:34:04.415Z,16.65
2019-05-05T05:36:33.806Z,21.85
2019-05-05T05:39:14.583Z,24.23
2019-05-05T05:41:44.649Z,19.32
2019-05-05T05:44:26.385Z,21.15
2019-05-05T05:46:55.534Z,18.80
2019-05-05T05:49:28.488Z,16.37
2019-05-05T05:51:57.971Z,15.63
2019-05-05T05:54:26.381Z,28.92
2019-05-05T05:56:54.849Z,20.23
2019-05-05T05:59:29.158Z,22.07
2019-05-05T06:02:09.135Z,25.55
2019-05-05T06:04:30.172Z,19.40
2019-05-05T06:06:58.996Z,23.32
2019-05-05T06:09:27.439Z,20.72
2019-05-05T06:11:56.275Z,20.80
2019-05-05T06:14:26.343Z,24.12
2019-05-05T06:16:55.165Z,23.50
2019-05-05T06:19:29.999Z,15.50
2019-05-05T06:21:58.454Z,14.65
2019-05-05T06:24:28.302Z,20.17
2019-05-05T06:27:03.752Z,22.42
2019-05-05T06:29:34.351Z,18.77
2019-05-05T06:32:06.035Z,14.40
2019-05-05T06:34:34.774Z,18.93
2019-05-05T06:37:08.625Z,21.73
2019-05-05T06:39:37.417Z,16.27
2019-05-05T06:42:21.351Z,24.80
2019-05-05T06:45:05.326Z,12.78
2019-05-05T06:50:34.808Z,16.55
2019-05-05T06:53:09.091Z,21.10
2019-05-05T06:55:37.528Z,15.32
2019-05-05T06:58:06.026Z,16.10
2019-05-05T07:00:34.809Z,20.50
2019-05-05T07:03:07.355Z,24.50
2019-05-05T07:05:34.162Z,15.63
2019-05-05T07:08:04.437Z,16.85
2019-05-05T07:10:36.238Z,18.45
2019-05-05T07:13:13.978Z,21.07
2019-05-05T07:15:43.781Z,17.45
2019-05-05T07:18:14.670Z,26.45
2019-05-05T07:20:44.191Z,18.45
2019-05-05T07:23:17.327Z,17.80
2019-05-05T07:25:46.225Z,21.17
2019-05-05T07:28:16.509Z,18.90
2019-05-05T07:30:47.548Z,26.15
2019-05-05T07:33:18.030Z,13.13
2019-05-05T07:36:14.421Z,16.42
2019-05-05T07:38:55.161Z,17.50
2019-05-05T07:41:35.560Z,17.82
2019-05-05T07:44:23.502Z,15.70
2019-05-05T07:47:07.319Z,25.15
2019-05-05T07:52:31.690Z,18.90
2019-05-05T07:55:00.964Z,16.30
2019-05-05T07:57:31.674Z,17.12
2019-05-05T08:00:20.770Z,19.07
2019-05-05T08:02:49.679Z,19.27
2019-05-05T08:05:19.576Z,18.10
2019-05-05T08:07:48.700Z,18.50
2019-05-05T08:10:17.567Z,19.48
2019-05-05T08:12:46.644Z,17.80
2019-05-05T08:15:17.019Z,15.65
2019-05-05T08:17:50.239Z,16.85
2019-05-05T08:23:05.335Z,11.68
2019-05-05T08:25:40.274Z,13.50
2019-05-05T08:28:14.744Z,16.42
2019-05-05T08:30:48.261Z,18.62
2019-05-05T08:33:24.133Z,20.32
2019-05-05T08:35:54.238Z,19.42
2019-05-05T08:41:10.415Z,23.67
2019-05-05T08:43:39.131Z,19.55
2019-05-05T08:46:07.603Z,16.30
2019-05-05T08:48:36.148Z,9.78
2019-05-05T08:51:05.617Z,17.17
2019-05-05T08:53:42.582Z,14.80
2019-05-05T08:56:04.221Z,7.53
2019-05-05T08:58:34.426Z,7.03
2019-05-05T09:01:04.426Z,15.55
2019-05-05T09:03:34.035Z,14.30
2019-05-05T09:06:08.317Z,13.85
2019-05-05T09:08:36.794Z,13.68
2019-05-05T09:11:06.203Z,17.55
2019-05-05T09:13:35.660Z,9.73
2019-05-05T09:16:04.124Z,12.18
2019-05-05T09:18:34.055Z,12.78
2019-05-05T09:21:04.374Z,12.65
2019-05-05T09:23:34.744Z,12.95
2019-05-05T09:26:04.854Z,8.83
2019-05-05T09:28:41.347Z,10.25
2019-05-05T09:31:09.878Z,13.68
2019-05-05T09:33:38.350Z,13.88
2019-05-05T09:36:06.842Z,13.18
2019-05-05T09:38:35.499Z,13.72
2019-05-05T09:41:03.982Z,11.65
2019-05-05T09:43:34.350Z,14.63
2019-05-05T09:46:03.890Z,10.23
2019-05-05T09:48:33.559Z,17.77
2019-05-05T09:51:04.341Z,14.10
2019-05-05T09:53:34.462Z,10.98
2019-05-05T09:58:26.878Z,18.30
2019-05-05T10:00:55.776Z,7.50
2019-05-05T10:03:24.451Z,8.28
2019-05-05T10:05:54.040Z,8.33
2019-05-05T10:08:23.682Z,10.53
2019-05-05T10:10:54.566Z,8.05
2019-05-05T10:13:22.388Z,8.50
2019-05-05T10:15:50.802Z,9.23
2019-05-05T10:18:19.557Z,7.97
2019-05-05T10:20:48.302Z,11.73
2019-05-05T10:23:17.008Z,14.50
2019-05-05T10:25:47.490Z,8.48
2019-05-05T10:28:16.068Z,16.32
2019-05-05T10:30:44.519Z,8.23
2019-05-05T10:33:14.234Z,7.80
2019-05-05T10:35:43.779Z,5.58
2019-05-05T10:38:14.326Z,6.30
2019-05-05T10:40:44.565Z,6.03
2019-05-05T10:43:14.662Z,10.53
2019-05-05T10:45:44.061Z,15.00
2019-05-05T10:48:14.401Z,15.55
2019-05-05T10:50:44.452Z,13.55
2019-05-05T10:53:13.661Z,15.93
2019-05-05T10:55:42.187Z,11.45
2019-05-05T10:58:13.643Z,8.65
2019-05-05T11:00:47.004Z,10.15
2019-05-05T11:03:15.528Z,8.78
2019-05-05T11:05:45.012Z,11.57
2019-05-05T11:08:13.922Z,9.68
2019-05-05T11:10:44.623Z,10.05
2019-05-05T11:13:12.470Z,11.30
2019-05-05T11:15:40.927Z,13.95
2019-05-05T11:18:09.638Z,11.43
2019-05-05T11:20:38.054Z,13.80
2019-05-05T11:23:06.515Z,10.75
2019-05-05T11:25:35.252Z,9.20
2019-05-05T11:28:05.457Z,16.27
2019-05-05T11:30:43.252Z,15.70
2019-05-05T11:33:28.515Z,14.10
2019-05-05T11:36:01.360Z,16.30
2019-05-05T11:40:57.590Z,14.60
2019-05-05T11:43:26.391Z,12.40
2019-05-05T11:45:55.204Z,11.75
2019-05-05T11:48:24.200Z,13.00
2019-05-05T11:50:58.386Z,9.65
2019-05-05T11:53:27.819Z,10.32
2019-05-05T11:55:56.306Z,12.68
2019-05-05T11:58:25.123Z,12.20
2019-05-05T12:00:54.476Z,8.80
2019-05-05T12:03:23.147Z,15.55
2019-05-05T12:05:51.894Z,12.10
2019-05-05T12:08:20.302Z,13.18
2019-05-05T12:10:54.231Z,16.93
2019-05-05T12:13:23.091Z,10.95
2019-05-05T12:15:53.816Z,13.03
2019-05-05T12:18:23.740Z,15.65
2019-05-05T12:20:54.247Z,11.60
2019-05-05T12:23:22.354Z,12.60
2019-05-05T12:25:56.670Z,11.45
2019-05-05T12:28:24.227Z,10.90
2019-05-05T12:30:55.604Z,19.05
2019-05-05T12:33:24.335Z,13.22
2019-05-05T12:35:53.953Z,17.82
2019-05-05T12:38:24.138Z,10.58
2019-05-05T12:40:53.556Z,10.75
2019-05-05T12:43:22.055Z,14.53
2019-05-05T12:46:01.687Z,7.85
2019-05-05T12:48:32.073Z,14.03
2019-05-05T12:51:00.480Z,11.43
2019-05-05T12:53:29.299Z,10.03
2019-05-05T12:55:58.022Z,11.95
2019-05-05T12:58:26.440Z,8.35
2019-05-05T13:01:05.941Z,7.75
2019-05-05T13:03:34.644Z,6.83
2019-05-05T13:06:04.106Z,11.97
2019-05-05T13:08:34.045Z,7.40
2019-05-05T13:11:04.046Z,7.58
2019-05-05T13:13:34.397Z,7.58
2019-05-05T13:16:04.232Z,10.30
2019-05-05T13:18:34.075Z,9.33
2019-05-05T13:21:19.160Z,12.82
2019-05-05T13:24:04.454Z,9.60
2019-05-05T13:26:34.543Z,14.20
2019-05-05T13:29:03.350Z,11.10
2019-05-05T13:31:33.757Z,12.20
2019-05-05T13:34:04.449Z,9.63
2019-05-05T13:36:33.457Z,8.55
2019-05-05T13:39:02.492Z,14.10
2019-05-05T13:41:30.905Z,13.20
2019-05-05T13:44:00.313Z,10.38
2019-05-05T13:46:33.801Z,9.13
2019-05-05T13:49:19.870Z,12.37
2019-05-05T13:51:48.375Z,13.32
2019-05-05T13:54:17.003Z,6.03
2019-05-05T13:56:45.659Z,9.45
2019-05-05T13:59:14.632Z,6.42
2019-05-05T14:01:44.791Z,9.63
2019-05-05T14:04:13.652Z,9.73
2019-05-05T14:06:43.977Z,6.53
2019-05-05T14:09:13.821Z,7.37
2019-05-05T14:11:44.542Z,9.43
2019-05-05T14:14:13.778Z,6.80
2019-05-05T14:16:44.663Z,8.55
2019-05-05T14:19:14.677Z,19.60
2019-05-05T14:21:44.627Z,9.48
2019-05-05T14:24:15.156Z,7.30
2019-05-05T14:26:43.891Z,4.80
2019-05-05T14:29:15.040Z,8.20
2019-05-05T14:31:44.571Z,8.15
2019-05-05T14:34:14.659Z,8.45
2019-05-05T14:36:44.744Z,9.48
2019-05-05T14:39:15.151Z,11.15
2019-05-05T14:41:44.580Z,7.42
2019-05-05T14:44:13.487Z,6.17
2019-05-05T14:46:44.434Z,6.10
2019-05-05T14:49:14.050Z,8.43
2019-05-05T14:51:44.652Z,8.78
2019-05-05T14:54:14.890Z,9.55
2019-05-05T14:56:44.075Z,9.43
2019-05-05T14:59:14.211Z,9.90
2019-05-05T15:01:44.762Z,7.53
2019-05-05T15:04:15.263Z,10.80
2019-05-05T15:06:45.660Z,9.35
2019-05-05T15:09:15.711Z,10.90
2019-05-05T15:11:53.799Z,6.12
2019-05-05T15:14:24.250Z,8.88
2019-05-05T15:16:54.171Z,7.33
2019-05-05T15:19:23.744Z,9.90
2019-05-05T15:21:53.598Z,8.73
2019-05-05T15:24:24.368Z,9.08
2019-05-05T15:26:54.865Z,12.65
2019-05-05T15:29:22.474Z,9.20
2019-05-05T15:31:50.887Z,7.75
2019-05-05T15:34:19.671Z,7.22
2019-05-05T15:36:48.124Z,10.08
2019-05-05T15:39:16.564Z,7.35
2019-05-05T15:41:45.299Z,8.10
2019-05-05T15:44:13.720Z,10.53
2019-05-05T15:46:44.076Z,5.53
2019-05-05T15:49:13.342Z,4.12
2019-05-05T15:51:41.758Z,10.05
2019-05-05T15:54:10.211Z,5.80
2019-05-05T15:56:38.952Z,3.58
2019-05-05T15:59:07.405Z,10.78
2019-05-05T16:01:35.814Z,6.80
2019-05-05T16:04:04.286Z,7.47
2019-05-05T16:06:34.465Z,10.38
2019-05-05T16:09:04.503Z,7.92
2019-05-05T16:11:33.976Z,6.87
2019-05-05T16:14:03.901Z,6.25
2019-05-05T16:16:34.250Z,5.25
2019-05-05T16:19:08.597Z,8.15
2019-05-05T16:21:54.444Z,7.97
2019-05-05T16:24:24.770Z,6.50
2019-05-05T16:26:53.758Z,7.58
2019-05-05T16:29:23.788Z,8.75
2019-05-05T16:31:53.652Z,4.62
2019-05-05T16:34:23.565Z,9.05
2019-05-05T16:36:56.663Z,6.05
2019-05-05T16:39:22.657Z,5.03
2019-05-05T16:41:51.134Z,5.35
2019-05-05T16:44:19.610Z,3.10
2019-05-05T16:46:48.423Z,4.17
2019-05-05T16:49:17.197Z,8.45
2019-05-05T16:51:50.203Z,6.97
2019-05-05T16:54:24.248Z,6.30
2019-05-05T16:56:53.786Z,5.30
2019-05-05T16:59:23.753Z,10.70
2019-05-05T17:01:53.970Z,7.28
2019-05-05T17:04:23.826Z,5.80
2019-05-05T17:06:54.158Z,6.33
2019-05-05T17:09:24.001Z,8.88
2019-05-05T17:12:10.349Z,9.13
2019-05-05T17:14:41.351Z,7.78
2019-05-05T17:17:11.848Z,8.83
2019-05-05T17:19:44.626Z,6.47
2019-05-05T17:22:14.999Z,9.10
2019-05-05T17:24:44.050Z,7.97
2019-05-05T17:27:13.949Z,11.53
2019-05-05T17:29:43.996Z,13.25
2019-05-05T17:32:13.927Z,4.08
2019-05-05T17:34:44.766Z,6.20
2019-05-05T17:37:13.472Z,6.62
2019-05-05T17:39:43.830Z,5.90
2019-05-05T17:42:30.852Z,6.53
2019-05-05T17:45:03.746Z,6.28
2019-05-05T17:47:36.606Z,10.98
2019-05-05T17:50:17.636Z,4.78
2019-05-05T17:53:02.451Z,6.28
2019-05-05T17:55:34.497Z,6.10
2019-05-05T17:58:02.996Z,6.85
2019-05-05T18:00:35.032Z,11.93
2019-05-05T18:03:04.321Z,7.12
2019-05-05T18:05:50.663Z,8.30
2019-05-05T18:08:24.050Z,10.32
2019-05-05T18:10:54.452Z,6.50
2019-05-05T18:13:24.447Z,12.58
2019-05-05T18:15:54.549Z,15.10
2019-05-05T18:18:23.464Z,9.28
2019-05-05T18:20:54.105Z,8.73
2019-05-05T18:23:24.452Z,7.58
2019-05-05T18:25:54.854Z,6.75
2019-05-05T18:28:24.682Z,11.00
2019-05-05T18:30:53.995Z,6.65
2019-05-05T18:33:24.524Z,8.78
2019-05-05T18:35:54.160Z,10.72
2019-05-05T18:38:24.915Z,8.98
2019-05-05T18:40:54.748Z,10.93
2019-05-05T18:43:24.859Z,8.28
2019-05-05T18:46:04.589Z,12.70
2019-05-05T18:48:34.521Z,8.18
2019-05-05T18:51:03.904Z,7.95
2019-05-05T18:53:34.104Z,7.83
2019-05-05T18:56:03.780Z,9.18
2019-05-05T18:58:34.201Z,10.30
2019-05-05T19:01:24.148Z,8.95
2019-05-05T19:04:04.266Z,10.18
2019-05-05T19:06:37.163Z,8.23
2019-05-05T19:09:10.227Z,8.68
2019-05-05T19:11:38.630Z,6.50
2019-05-05T19:14:07.371Z,8.38
2019-05-05T19:16:35.789Z,14.05
2019-05-05T19:19:04.244Z,6.70
2019-05-05T19:21:37.327Z,10.13
2019-05-05T19:24:05.752Z,10.55
2019-05-05T19:26:34.545Z,9.18
2019-05-05T19:29:05.067Z,7.70
2019-05-05T19:31:36.339Z,9.40
2019-05-05T19:34:04.204Z,10.93
2019-05-05T19:36:34.342Z,15.18
2019-05-05T19:39:04.112Z,10.35
2019-05-05T19:41:34.821Z,6.83
2019-05-05T19:44:04.734Z,11.08
2019-05-05T19:46:35.050Z,49.98
2019-05-05T19:49:16.753Z,15.32
2019-05-05T19:51:45.835Z,10.28
2019-05-05T19:54:14.495Z,7.22
2019-05-05T19:56:44.800Z,10.70
2019-05-05T19:59:13.698Z,15.55
2019-05-05T20:01:44.731Z,11.10
2019-05-05T20:04:14.489Z,13.62
2019-05-05T20:06:44.154Z,7.80
2019-05-05T20:09:14.189Z,10.05
2019-05-05T20:11:43.766Z,10.32
2019-05-05T20:14:14.859Z,10.85
2019-05-05T20:17:00.442Z,10.80
2019-05-05T20:19:31.020Z,8.20
2019-05-05T20:21:59.463Z,9.48
2019-05-05T20:24:27.919Z,8.98
2019-05-05T20:26:56.660Z,15.28
2019-05-05T20:29:25.066Z,9.78
2019-05-05T20:31:56.425Z,5.60
2019-05-05T20:34:28.205Z,9.48
2019-05-05T20:37:10.452Z,10.08
2019-05-05T20:39:38.890Z,7.75
2019-05-05T20:42:08.211Z,6.80
2019-05-05T20:44:36.843Z,9.10
2019-05-05T20:47:05.586Z,9.73
2019-05-05T20:49:34.626Z,5.90
2019-05-05T20:52:03.811Z,7.60
2019-05-05T20:54:33.269Z,11.08
2019-05-05T20:57:04.165Z,20.02
2019-05-05T20:59:34.106Z,9.75
2019-05-05T21:02:04.255Z,10.10
2019-05-05T21:04:34.269Z,28.52
2019-05-05T21:07:04.477Z,18.48
2019-05-05T21:09:34.617Z,6.03
2019-05-05T21:12:04.746Z,9.48
2019-05-05T21:14:37.268Z,8.58
2019-05-05T21:17:04.206Z,9.58
2019-05-05T21:19:34.674Z,10.20
2019-05-05T21:22:21.120Z,7.53
2019-05-05T21:24:49.644Z,7.30
2019-05-05T21:27:18.216Z,9.55
2019-05-05T21:29:46.632Z,7.47
2019-05-05T21:32:15.089Z,10.32
2019-05-05T21:34:44.409Z,11.95
2019-05-05T21:37:14.143Z,8.23
2019-05-05T21:39:42.732Z,9.50
2019-05-05T21:42:13.923Z,6.83
2019-05-05T21:44:43.994Z,9.65
2019-05-05T21:47:13.982Z,8.25
2019-05-05T21:49:42.018Z,12.58
2019-05-05T21:52:19.143Z,8.58
2019-05-05T21:54:58.122Z,6.22
2019-05-05T21:57:31.175Z,7.40
2019-05-05T21:59:59.624Z,11.18
2019-05-05T22:02:28.211Z,9.30
2019-05-05T22:04:56.920Z,9.53
2019-05-05T22:07:25.364Z,7.78
2019-05-05T22:09:54.439Z,8.38
2019-05-05T22:12:24.340Z,10.43
2019-05-05T22:14:54.832Z,11.18
2019-05-05T22:17:23.486Z,8.40
2019-05-05T22:19:56.867Z,10.82
2019-05-05T22:22:27.244Z,10.25
2019-05-05T22:24:56.002Z,11.08
2019-05-05T22:27:24.779Z,8.93
2019-05-05T22:29:55.297Z,14.23
2019-05-05T22:32:24.941Z,17.82
2019-05-05T22:34:53.913Z,9.13
2019-05-05T22:37:23.622Z,11.28
2019-05-05T22:39:54.167Z,10.68
2019-05-05T22:42:22.169Z,8.60
2019-05-05T22:44:50.619Z,12.20
2019-05-05T22:47:19.044Z,9.98
2019-05-05T22:49:47.434Z,9.43
2019-05-05T22:52:16.274Z,10.40
2019-05-05T22:54:44.724Z,10.75
2019-05-05T22:57:14.008Z,11.22
2019-05-05T22:59:42.720Z,11.97
2019-05-05T23:02:11.536Z,8.98
2019-05-05T23:04:44.536Z,14.60
2019-05-05T23:07:17.746Z,11.18
2019-05-05T23:09:46.168Z,9.80
2019-05-05T23:12:14.616Z,11.25
2019-05-05T23:14:43.781Z,11.97
2019-05-05T23:17:19.635Z,11.03
2019-05-05T23:19:49.893Z,12.65
2019-05-05T23:22:19.955Z,10.03
2019-05-05T23:24:50.010Z,10.38
2019-05-05T23:27:36.665Z,11.97
2019-05-05T23:30:08.201Z,11.50
2019-05-05T23:32:36.643Z,9.13
2019-05-05T23:35:05.566Z,15.72
2019-05-05T23:37:34.365Z,10.25
2019-05-05T23:40:03.783Z,9.35
2019-05-05T23:42:33.663Z,12.03
2019-05-05T23:45:04.411Z,10.80
2019-05-05T23:47:34.499Z,11.63
2019-05-05T23:50:04.569Z,10.15
2019-05-05T23:52:34.852Z,12.73
2019-05-05T23:55:04.067Z,13.45
2019-05-05T23:57:32.935Z,14.13
